sensor_id;sensor_type;location;lat;lon;timestamp;temperature;humidity
4487;DHT22;2256;48.740;9.106;2023-04-07T00:00:47;6.10;99.90
4487;DHT22;2256;48.740;9.106;2023-04-07T00:03:15;6.10;99.90
4487;DHT22;2256;48.740;9.106;2023-04-07T00:05:42;6.10;99.90
4487;DHT22;2256;48.740;9.106;2023-04-07T00:08:10;6.00;99.90
4487;DHT22;2256;48.740;9.106;2023-04-07T00:10:39;6.00;99.90
4487;DHT22;2256;48.740;9.106;2023-04-07T00:13:07;6.00;99.90
4487;DHT22;2256;48.740;9.106;2023-04-07T00:15:35;6.10;99.90
4487;DHT22;2256;48.740;9.106;2023-04-07T00:18:02;6.00;99.90
4487;DHT22;2256;48.740;9.106;2023-04-07T00:20:29;6.00;99.90
4487;DHT22;2256;48.740;9.106;2023-04-07T00:22:55;6.00;99.90
4487;DHT22;2256;48.740;9.106;2023-04-07T00:25:24;6.10;99.90
4487;DHT22;2256;48.740;9.106;2023-04-07T00:27:50;6.10;99.90
4487;DHT22;2256;48.740;9.106;2023-04-07T00:30:17;6.10;99.90
4487;DHT22;2256;48.740;9.106;2023-04-07T00:32:44;6.10;99.90
4487;DHT22;2256;48.740;9.106;2023-04-07T00:35:11;6.10;99.90
4487;DHT22;2256;48.740;9.106;2023-04-07T00:37:38;6.00;99.90
4487;DHT22;2256;48.740;9.106;2023-04-07T00:40:06;6.10;99.90
4487;DHT22;2256;48.740;9.106;2023-04-07T00:42:34;6.10;99.90
4487;DHT22;2256;48.740;9.106;2023-04-07T00:45:02;6.10;99.90
4487;DHT22;2256;48.740;9.106;2023-04-07T00:47:31;6.10;99.90
4487;DHT22;2256;48.740;9.106;2023-04-07T00:49:58;6.20;99.90
4487;DHT22;2256;48.740;9.106;2023-04-07T00:52:24;6.20;99.90
4487;DHT22;2256;48.740;9.106;2023-04-07T00:54:54;6.20;99.90
4487;DHT22;2256;48.740;9.106;2023-04-07T00:57:21;6.10;99.90
4487;DHT22;2256;48.740;9.106;2023-04-07T00:59:49;6.10;99.90
4487;DHT22;2256;48.740;9.106;2023-04-07T01:02:21;6.10;99.90
4487;DHT22;2256;48.740;9.106;2023-04-07T01:04:53;6.10;99.90
4487;DHT22;2256;48.740;9.106;2023-04-07T01:07:24;6.10;99.90
4487;DHT22;2256;48.740;9.106;2023-04-07T01:09:56;6.10;99.90
4487;DHT22;2256;48.740;9.106;2023-04-07T01:12:32;6.00;99.90
4487;DHT22;2256;48.740;9.106;2023-04-07T01:15:06;6.00;99.90
4487;DHT22;2256;48.740;9.106;2023-04-07T01:17:36;6.00;99.90
4487;DHT22;2256;48.740;9.106;2023-04-07T01:20:04;6.10;99.90
4487;DHT22;2256;48.740;9.106;2023-04-07T01:22:37;6.10;99.90
4487;DHT22;2256;48.740;9.106;2023-04-07T01:25:22;6.10;99.90
4487;DHT22;2256;48.740;9.106;2023-04-07T01:27:59;6.10;99.90
4487;DHT22;2256;48.740;9.106;2023-04-07T01:30:38;6.10;99.90
4487;DHT22;2256;48.740;9.106;2023-04-07T01:33:06;6.00;99.90
4487;DHT22;2256;48.740;9.106;2023-04-07T01:35:35;6.10;99.90
4487;DHT22;2256;48.740;9.106;2023-04-07T01:38:02;6.10;99.90
4487;DHT22;2256;48.740;9.106;2023-04-07T01:40:32;6.10;99.90
4487;DHT22;2256;48.740;9.106;2023-04-07T01:43:00;6.10;99.90
4487;DHT22;2256;48.740;9.106;2023-04-07T01:45:28;6.10;99.90
4487;DHT22;2256;48.740;9.106;2023-04-07T01:47:56;6.10;99.90
4487;DHT22;2256;48.740;9.106;2023-04-07T01:50:24;6.00;99.90
4487;DHT22;2256;48.740;9.106;2023-04-07T01:52:51;6.00;99.90
4487;DHT22;2256;48.740;9.106;2023-04-07T01:55:20;6.00;99.90
4487;DHT22;2256;48.740;9.106;2023-04-07T01:57:47;6.10;99.90
4487;DHT22;2256;48.740;9.106;2023-04-07T02:00:15;6.10;99.90
4487;DHT22;2256;48.740;9.106;2023-04-07T02:02:44;6.10;99.90
4487;DHT22;2256;48.740;9.106;2023-04-07T02:05:17;6.20;99.90
4487;DHT22;2256;48.740;9.106;2023-04-07T02:07:49;6.20;99.90
4487;DHT22;2256;48.740;9.106;2023-04-07T02:10:21;6.10;99.90
4487;DHT22;2256;48.740;9.106;2023-04-07T02:12:49;6.10;99.90
4487;DHT22;2256;48.740;9.106;2023-04-07T02:15:18;6.10;99.90
4487;DHT22;2256;48.740;9.106;2023-04-07T02:17:47;6.20;99.90
4487;DHT22;2256;48.740;9.106;2023-04-07T02:20:17;6.20;99.90
4487;DHT22;2256;48.740;9.106;2023-04-07T02:22:46;6.20;99.90
4487;DHT22;2256;48.740;9.106;2023-04-07T02:25:21;6.10;99.90
4487;DHT22;2256;48.740;9.106;2023-04-07T02:27:49;6.10;99.90
4487;DHT22;2256;48.740;9.106;2023-04-07T02:30:16;6.10;99.90
4487;DHT22;2256;48.740;9.106;2023-04-07T02:32:43;6.20;99.90
4487;DHT22;2256;48.740;9.106;2023-04-07T02:35:10;6.20;99.90
4487;DHT22;2256;48.740;9.106;2023-04-07T02:37:38;6.20;99.90
4487;DHT22;2256;48.740;9.106;2023-04-07T02:40:06;6.20;99.90
4487;DHT22;2256;48.740;9.106;2023-04-07T02:42:33;6.20;99.90
4487;DHT22;2256;48.740;9.106;2023-04-07T02:45:02;6.30;99.90
4487;DHT22;2256;48.740;9.106;2023-04-07T02:47:28;6.30;99.90
4487;DHT22;2256;48.740;9.106;2023-04-07T02:49:55;6.20;99.90
4487;DHT22;2256;48.740;9.106;2023-04-07T02:52:22;6.30;99.90
4487;DHT22;2256;48.740;9.106;2023-04-07T02:54:51;6.30;99.90
4487;DHT22;2256;48.740;9.106;2023-04-07T02:57:18;6.30;99.90
4487;DHT22;2256;48.740;9.106;2023-04-07T02:59:45;6.30;99.90
4487;DHT22;2256;48.740;9.106;2023-04-07T03:02:12;6.30;99.90
4487;DHT22;2256;48.740;9.106;2023-04-07T03:04:38;6.30;99.90
4487;DHT22;2256;48.740;9.106;2023-04-07T03:07:05;6.30;99.90
4487;DHT22;2256;48.740;9.106;2023-04-07T03:09:33;6.20;99.90
4487;DHT22;2256;48.740;9.106;2023-04-07T03:12:02;6.30;99.90
4487;DHT22;2256;48.740;9.106;2023-04-07T03:14:29;6.30;99.90
4487;DHT22;2256;48.740;9.106;2023-04-07T03:16:56;6.40;99.90
4487;DHT22;2256;48.740;9.106;2023-04-07T03:19:23;6.30;99.90
4487;DHT22;2256;48.740;9.106;2023-04-07T03:21:50;6.30;99.90
4487;DHT22;2256;48.740;9.106;2023-04-07T03:24:16;6.30;99.90
4487;DHT22;2256;48.740;9.106;2023-04-07T03:26:43;6.30;99.90
4487;DHT22;2256;48.740;9.106;2023-04-07T03:29:11;6.30;99.90
4487;DHT22;2256;48.740;9.106;2023-04-07T03:31:38;6.40;99.90
4487;DHT22;2256;48.740;9.106;2023-04-07T03:34:05;6.40;99.90
4487;DHT22;2256;48.740;9.106;2023-04-07T03:36:31;6.50;99.90
4487;DHT22;2256;48.740;9.106;2023-04-07T03:38:59;6.50;99.90
4487;DHT22;2256;48.740;9.106;2023-04-07T03:41:26;6.50;99.90
4487;DHT22;2256;48.740;9.106;2023-04-07T03:43:53;6.40;99.90
4487;DHT22;2256;48.740;9.106;2023-04-07T03:46:22;6.40;99.90
4487;DHT22;2256;48.740;9.106;2023-04-07T03:48:51;6.60;99.90
4487;DHT22;2256;48.740;9.106;2023-04-07T03:51:19;6.50;99.90
4487;DHT22;2256;48.740;9.106;2023-04-07T03:53:46;6.50;99.90
4487;DHT22;2256;48.740;9.106;2023-04-07T03:56:12;6.50;99.90
4487;DHT22;2256;48.740;9.106;2023-04-07T03:58:39;6.50;99.90
4487;DHT22;2256;48.740;9.106;2023-04-07T04:01:07;6.50;99.90
4487;DHT22;2256;48.740;9.106;2023-04-07T04:03:35;6.50;99.90
4487;DHT22;2256;48.740;9.106;2023-04-07T04:06:03;6.50;99.90
4487;DHT22;2256;48.740;9.106;2023-04-07T04:08:32;6.60;99.90
4487;DHT22;2256;48.740;9.106;2023-04-07T04:10:59;6.60;99.90
4487;DHT22;2256;48.740;9.106;2023-04-07T04:13:26;6.60;99.90
4487;DHT22;2256;48.740;9.106;2023-04-07T04:15:52;6.60;99.90
4487;DHT22;2256;48.740;9.106;2023-04-07T04:18:19;6.50;99.90
4487;DHT22;2256;48.740;9.106;2023-04-07T04:20:47;6.40;99.90
4487;DHT22;2256;48.740;9.106;2023-04-07T04:23:14;6.50;99.90
4487;DHT22;2256;48.740;9.106;2023-04-07T04:25:41;6.40;99.90
4487;DHT22;2256;48.740;9.106;2023-04-07T04:28:08;6.40;99.90
4487;DHT22;2256;48.740;9.106;2023-04-07T04:30:35;6.50;99.90
4487;DHT22;2256;48.740;9.106;2023-04-07T04:33:01;6.50;99.90
4487;DHT22;2256;48.740;9.106;2023-04-07T04:35:28;6.40;99.90
4487;DHT22;2256;48.740;9.106;2023-04-07T04:37:56;6.50;99.90
4487;DHT22;2256;48.740;9.106;2023-04-07T04:40:23;6.40;99.90
4487;DHT22;2256;48.740;9.106;2023-04-07T04:42:50;6.40;99.90
4487;DHT22;2256;48.740;9.106;2023-04-07T04:45:17;6.30;99.90
4487;DHT22;2256;48.740;9.106;2023-04-07T04:47:44;6.40;99.90
4487;DHT22;2256;48.740;9.106;2023-04-07T04:50:10;6.40;99.90
4487;DHT22;2256;48.740;9.106;2023-04-07T04:52:37;6.50;99.90
4487;DHT22;2256;48.740;9.106;2023-04-07T04:55:07;6.40;99.90
4487;DHT22;2256;48.740;9.106;2023-04-07T04:57:34;6.40;99.90
4487;DHT22;2256;48.740;9.106;2023-04-07T05:00:01;6.40;99.90
4487;DHT22;2256;48.740;9.106;2023-04-07T05:02:28;6.40;99.90
4487;DHT22;2256;48.740;9.106;2023-04-07T05:04:55;6.40;99.90
4487;DHT22;2256;48.740;9.106;2023-04-07T05:07:22;6.30;99.90
4487;DHT22;2256;48.740;9.106;2023-04-07T05:09:49;6.50;99.90
4487;DHT22;2256;48.740;9.106;2023-04-07T05:12:17;6.40;99.90
4487;DHT22;2256;48.740;9.106;2023-04-07T05:14:44;6.30;99.90
4487;DHT22;2256;48.740;9.106;2023-04-07T05:17:11;6.40;99.90
4487;DHT22;2256;48.740;9.106;2023-04-07T05:19:37;6.30;99.90
4487;DHT22;2256;48.740;9.106;2023-04-07T05:22:04;6.40;99.90
4487;DHT22;2256;48.740;9.106;2023-04-07T05:24:31;6.40;99.90
4487;DHT22;2256;48.740;9.106;2023-04-07T05:26:59;6.40;99.90
4487;DHT22;2256;48.740;9.106;2023-04-07T05:29:28;6.40;99.90
4487;DHT22;2256;48.740;9.106;2023-04-07T05:31:55;6.50;99.90
4487;DHT22;2256;48.740;9.106;2023-04-07T05:34:23;6.50;99.90
4487;DHT22;2256;48.740;9.106;2023-04-07T05:36:50;6.60;99.90
4487;DHT22;2256;48.740;9.106;2023-04-07T05:39:17;6.60;99.90
4487;DHT22;2256;48.740;9.106;2023-04-07T05:41:44;6.50;99.90
4487;DHT22;2256;48.740;9.106;2023-04-07T05:44:11;6.50;99.90
4487;DHT22;2256;48.740;9.106;2023-04-07T05:46:39;6.60;99.90
4487;DHT22;2256;48.740;9.106;2023-04-07T05:49:06;6.70;99.90
4487;DHT22;2256;48.740;9.106;2023-04-07T05:51:32;6.70;99.90
4487;DHT22;2256;48.740;9.106;2023-04-07T05:54:01;6.90;99.90
4487;DHT22;2256;48.740;9.106;2023-04-07T05:56:28;6.90;99.90
4487;DHT22;2256;48.740;9.106;2023-04-07T05:58:56;7.00;99.90
4487;DHT22;2256;48.740;9.106;2023-04-07T06:01:23;6.90;99.90
4487;DHT22;2256;48.740;9.106;2023-04-07T06:03:51;6.90;99.90
4487;DHT22;2256;48.740;9.106;2023-04-07T06:06:18;7.00;99.90
4487;DHT22;2256;48.740;9.106;2023-04-07T06:08:45;7.10;99.90
4487;DHT22;2256;48.740;9.106;2023-04-07T06:11:12;7.00;99.90
4487;DHT22;2256;48.740;9.106;2023-04-07T06:13:39;7.10;99.90
4487;DHT22;2256;48.740;9.106;2023-04-07T06:16:06;7.20;99.90
4487;DHT22;2256;48.740;9.106;2023-04-07T06:18:33;7.20;99.90
4487;DHT22;2256;48.740;9.106;2023-04-07T06:21:02;7.30;99.90
4487;DHT22;2256;48.740;9.106;2023-04-07T06:23:28;7.40;99.90
4487;DHT22;2256;48.740;9.106;2023-04-07T06:25:55;7.40;99.90
4487;DHT22;2256;48.740;9.106;2023-04-07T06:28:22;7.50;99.90
4487;DHT22;2256;48.740;9.106;2023-04-07T06:30:49;7.50;99.90
4487;DHT22;2256;48.740;9.106;2023-04-07T06:33:16;7.50;99.90
4487;DHT22;2256;48.740;9.106;2023-04-07T06:35:43;7.50;99.90
4487;DHT22;2256;48.740;9.106;2023-04-07T06:38:11;7.50;99.90
4487;DHT22;2256;48.740;9.106;2023-04-07T06:40:38;7.70;99.90
4487;DHT22;2256;48.740;9.106;2023-04-07T06:43:05;7.70;99.90
4487;DHT22;2256;48.740;9.106;2023-04-07T06:45:32;7.70;99.90
4487;DHT22;2256;48.740;9.106;2023-04-07T06:47:58;7.80;99.90
4487;DHT22;2256;48.740;9.106;2023-04-07T06:50:25;7.80;99.90
4487;DHT22;2256;48.740;9.106;2023-04-07T06:52:52;7.90;99.90
4487;DHT22;2256;48.740;9.106;2023-04-07T06:55:20;7.90;99.90
4487;DHT22;2256;48.740;9.106;2023-04-07T06:57:47;8.00;99.90
4487;DHT22;2256;48.740;9.106;2023-04-07T07:00:15;8.00;99.90
4487;DHT22;2256;48.740;9.106;2023-04-07T07:02:42;8.00;99.90
4487;DHT22;2256;48.740;9.106;2023-04-07T07:05:09;8.10;99.90
4487;DHT22;2256;48.740;9.106;2023-04-07T07:07:36;8.20;99.90
4487;DHT22;2256;48.740;9.106;2023-04-07T07:10:03;8.30;99.90
4487;DHT22;2256;48.740;9.106;2023-04-07T07:12:32;8.30;99.90
4487;DHT22;2256;48.740;9.106;2023-04-07T07:14:59;8.30;99.90
4487;DHT22;2256;48.740;9.106;2023-04-07T07:17:26;8.30;99.90
4487;DHT22;2256;48.740;9.106;2023-04-07T07:19:53;8.40;99.90
4487;DHT22;2256;48.740;9.106;2023-04-07T07:22:20;8.50;99.90
4487;DHT22;2256;48.740;9.106;2023-04-07T07:24:47;8.60;99.90
4487;DHT22;2256;48.740;9.106;2023-04-07T07:27:14;8.70;99.90
4487;DHT22;2256;48.740;9.106;2023-04-07T07:29:42;8.90;99.90
4487;DHT22;2256;48.740;9.106;2023-04-07T07:32:09;9.00;99.90
4487;DHT22;2256;48.740;9.106;2023-04-07T07:34:36;9.20;99.90
4487;DHT22;2256;48.740;9.106;2023-04-07T07:37:02;9.30;99.90
4487;DHT22;2256;48.740;9.106;2023-04-07T07:39:29;9.50;99.90
4487;DHT22;2256;48.740;9.106;2023-04-07T07:41:56;9.80;99.90
4487;DHT22;2256;48.740;9.106;2023-04-07T07:44:23;10.00;99.90
4487;DHT22;2256;48.740;9.106;2023-04-07T07:46:51;10.00;99.90
4487;DHT22;2256;48.740;9.106;2023-04-07T07:49:18;10.20;99.90
4487;DHT22;2256;48.740;9.106;2023-04-07T07:51:45;10.80;99.90
4487;DHT22;2256;48.740;9.106;2023-04-07T07:54:12;11.80;99.90
4487;DHT22;2256;48.740;9.106;2023-04-07T07:56:39;12.70;99.90
4487;DHT22;2256;48.740;9.106;2023-04-07T07:59:06;12.80;99.90
4487;DHT22;2256;48.740;9.106;2023-04-07T08:01:33;12.60;99.90
4487;DHT22;2256;48.740;9.106;2023-04-07T08:04:01;12.80;99.90
4487;DHT22;2256;48.740;9.106;2023-04-07T08:06:28;14.30;99.40
4487;DHT22;2256;48.740;9.106;2023-04-07T08:08:55;15.70;97.70
4487;DHT22;2256;48.740;9.106;2023-04-07T08:11:23;16.90;95.60
4487;DHT22;2256;48.740;9.106;2023-04-07T08:13:50;17.40;94.10
4487;DHT22;2256;48.740;9.106;2023-04-07T08:16:18;17.70;93.20
4487;DHT22;2256;48.740;9.106;2023-04-07T08:18:45;18.40;92.50
4487;DHT22;2256;48.740;9.106;2023-04-07T08:21:13;19.10;92.00
4487;DHT22;2256;48.740;9.106;2023-04-07T08:23:40;20.00;90.80
4487;DHT22;2256;48.740;9.106;2023-04-07T08:26:07;20.30;89.50
4487;DHT22;2256;48.740;9.106;2023-04-07T08:28:34;19.40;88.90
4487;DHT22;2256;48.740;9.106;2023-04-07T08:31:01;18.90;90.60
4487;DHT22;2256;48.740;9.106;2023-04-07T08:33:27;19.50;90.30
4487;DHT22;2256;48.740;9.106;2023-04-07T08:35:54;20.60;88.90
4487;DHT22;2256;48.740;9.106;2023-04-07T08:38:22;21.60;86.70
4487;DHT22;2256;48.740;9.106;2023-04-07T08:40:53;21.50;86.10
4487;DHT22;2256;48.740;9.106;2023-04-07T08:43:24;21.30;83.50
4487;DHT22;2256;48.740;9.106;2023-04-07T08:45:56;19.80;84.60
4487;DHT22;2256;48.740;9.106;2023-04-07T08:48:23;18.50;86.80
4487;DHT22;2256;48.740;9.106;2023-04-07T08:50:53;17.50;89.90
4487;DHT22;2256;48.740;9.106;2023-04-07T08:53:28;16.50;90.30
4487;DHT22;2256;48.740;9.106;2023-04-07T08:55:59;16.00;91.10
4487;DHT22;2256;48.740;9.106;2023-04-07T08:58:26;15.70;91.60
4487;DHT22;2256;48.740;9.106;2023-04-07T09:00:53;15.30;92.30
4487;DHT22;2256;48.740;9.106;2023-04-07T09:03:21;14.80;93.10
4487;DHT22;2256;48.740;9.106;2023-04-07T09:05:48;14.00;94.20
4487;DHT22;2256;48.740;9.106;2023-04-07T09:08:15;13.40;94.50
4487;DHT22;2256;48.740;9.106;2023-04-07T09:10:44;12.60;95.30
4487;DHT22;2256;48.740;9.106;2023-04-07T09:13:11;12.20;96.30
4487;DHT22;2256;48.740;9.106;2023-04-07T09:15:38;12.10;96.80
4487;DHT22;2256;48.740;9.106;2023-04-07T09:18:05;12.10;96.80
4487;DHT22;2256;48.740;9.106;2023-04-07T09:20:54;12.30;97.60
4487;DHT22;2256;48.740;9.106;2023-04-07T09:23:29;12.80;97.00
4487;DHT22;2256;48.740;9.106;2023-04-07T09:25:58;12.50;96.40
4487;DHT22;2256;48.740;9.106;2023-04-07T09:28:40;12.30;97.00
4487;DHT22;2256;48.740;9.106;2023-04-07T09:31:07;12.20;97.30
4487;DHT22;2256;48.740;9.106;2023-04-07T09:33:34;12.00;97.10
4487;DHT22;2256;48.740;9.106;2023-04-07T09:36:01;11.90;97.60
4487;DHT22;2256;48.740;9.106;2023-04-07T09:38:33;11.90;97.40
4487;DHT22;2256;48.740;9.106;2023-04-07T09:41:08;12.70;97.80
4487;DHT22;2256;48.740;9.106;2023-04-07T09:43:37;14.60;95.80
4487;DHT22;2256;48.740;9.106;2023-04-07T09:46:12;16.40;94.30
4487;DHT22;2256;48.740;9.106;2023-04-07T09:48:40;17.60;92.50
4487;DHT22;2256;48.740;9.106;2023-04-07T09:51:09;18.20;91.70
4487;DHT22;2256;48.740;9.106;2023-04-07T09:53:44;18.90;90.70
4487;DHT22;2256;48.740;9.106;2023-04-07T09:56:14;19.60;90.30
4487;DHT22;2256;48.740;9.106;2023-04-07T09:58:43;19.30;88.10
4487;DHT22;2256;48.740;9.106;2023-04-07T10:01:11;19.00;89.60
4487;DHT22;2256;48.740;9.106;2023-04-07T10:03:38;18.50;88.30
4487;DHT22;2256;48.740;9.106;2023-04-07T10:06:06;17.50;89.40
4487;DHT22;2256;48.740;9.106;2023-04-07T10:08:35;16.40;90.40
4487;DHT22;2256;48.740;9.106;2023-04-07T10:11:02;15.60;91.90
4487;DHT22;2256;48.740;9.106;2023-04-07T10:13:32;14.60;92.70
4487;DHT22;2256;48.740;9.106;2023-04-07T10:16:02;13.50;94.30
4487;DHT22;2256;48.740;9.106;2023-04-07T10:18:30;12.70;97.90
4487;DHT22;2256;48.740;9.106;2023-04-07T10:20:59;11.40;99.90
4487;DHT22;2256;48.740;9.106;2023-04-07T10:23:33;10.50;99.90
4487;DHT22;2256;48.740;9.106;2023-04-07T10:26:05;10.30;99.90
4487;DHT22;2256;48.740;9.106;2023-04-07T10:28:36;10.20;99.90
4487;DHT22;2256;48.740;9.106;2023-04-07T10:31:04;10.00;99.90
4487;DHT22;2256;48.740;9.106;2023-04-07T10:33:46;9.70;99.90
4487;DHT22;2256;48.740;9.106;2023-04-07T10:36:13;9.60;99.90
4487;DHT22;2256;48.740;9.106;2023-04-07T10:38:40;9.30;99.90
4487;DHT22;2256;48.740;9.106;2023-04-07T10:41:32;9.20;99.90
4487;DHT22;2256;48.740;9.106;2023-04-07T10:44:01;9.30;99.90
4487;DHT22;2256;48.740;9.106;2023-04-07T10:47:01;9.20;99.90
4487;DHT22;2256;48.740;9.106;2023-04-07T10:49:27;9.20;99.90
4487;DHT22;2256;48.740;9.106;2023-04-07T10:52:22;9.30;99.90
4487;DHT22;2256;48.740;9.106;2023-04-07T10:58:23;9.60;99.90
4487;DHT22;2256;48.740;9.106;2023-04-07T11:01:19;9.70;99.90
4487;DHT22;2256;48.740;9.106;2023-04-07T11:03:59;10.00;99.90
4487;DHT22;2256;48.740;9.106;2023-04-07T11:06:26;10.10;99.90
4487;DHT22;2256;48.740;9.106;2023-04-07T11:08:53;10.10;99.90
4487;DHT22;2256;48.740;9.106;2023-04-07T11:11:35;10.20;99.90
4487;DHT22;2256;48.740;9.106;2023-04-07T11:14:03;10.30;99.90
4487;DHT22;2256;48.740;9.106;2023-04-07T11:16:40;10.30;99.90
4487;DHT22;2256;48.740;9.106;2023-04-07T11:19:07;10.30;99.90
4487;DHT22;2256;48.740;9.106;2023-04-07T11:21:34;10.40;99.90
4487;DHT22;2256;48.740;9.106;2023-04-07T11:24:01;10.40;99.90
4487;DHT22;2256;48.740;9.106;2023-04-07T11:26:29;10.30;99.90
4487;DHT22;2256;48.740;9.106;2023-04-07T11:29:02;10.40;99.90
4487;DHT22;2256;48.740;9.106;2023-04-07T11:31:29;10.50;99.90
4487;DHT22;2256;48.740;9.106;2023-04-07T11:34:00;10.60;99.90
4487;DHT22;2256;48.740;9.106;2023-04-07T11:36:28;10.60;99.90
4487;DHT22;2256;48.740;9.106;2023-04-07T11:38:55;10.40;99.90
4487;DHT22;2256;48.740;9.106;2023-04-07T11:41:24;10.20;99.90
4487;DHT22;2256;48.740;9.106;2023-04-07T11:44:04;10.10;99.90
4487;DHT22;2256;48.740;9.106;2023-04-07T11:46:31;9.90;99.90
4487;DHT22;2256;48.740;9.106;2023-04-07T11:49:09;9.70;99.90
4487;DHT22;2256;48.740;9.106;2023-04-07T11:51:36;9.50;99.90
4487;DHT22;2256;48.740;9.106;2023-04-07T11:54:03;9.50;99.90
4487;DHT22;2256;48.740;9.106;2023-04-07T11:56:41;9.50;99.90
4487;DHT22;2256;48.740;9.106;2023-04-07T11:59:08;9.30;99.90
4487;DHT22;2256;48.740;9.106;2023-04-07T12:01:40;9.10;99.90
4487;DHT22;2256;48.740;9.106;2023-04-07T12:04:12;9.00;99.90
4487;DHT22;2256;48.740;9.106;2023-04-07T12:06:39;9.00;99.90
4487;DHT22;2256;48.740;9.106;2023-04-07T12:09:08;8.90;99.90
4487;DHT22;2256;48.740;9.106;2023-04-07T12:11:35;9.10;99.90
4487;DHT22;2256;48.740;9.106;2023-04-07T12:14:03;9.00;99.90
4487;DHT22;2256;48.740;9.106;2023-04-07T12:16:31;8.90;99.90
4487;DHT22;2256;48.740;9.106;2023-04-07T12:18:58;9.00;99.90
4487;DHT22;2256;48.740;9.106;2023-04-07T12:21:26;9.10;99.90
4487;DHT22;2256;48.740;9.106;2023-04-07T12:23:53;9.20;99.90
4487;DHT22;2256;48.740;9.106;2023-04-07T12:26:20;9.10;99.90
4487;DHT22;2256;48.740;9.106;2023-04-07T12:28:47;9.20;99.90
4487;DHT22;2256;48.740;9.106;2023-04-07T12:31:14;9.30;99.90
4487;DHT22;2256;48.740;9.106;2023-04-07T12:33:42;9.20;99.90
4487;DHT22;2256;48.740;9.106;2023-04-07T12:36:09;9.30;99.90
4487;DHT22;2256;48.740;9.106;2023-04-07T12:38:37;9.20;99.90
4487;DHT22;2256;48.740;9.106;2023-04-07T12:41:04;9.10;99.90
4487;DHT22;2256;48.740;9.106;2023-04-07T12:43:31;9.10;99.90
4487;DHT22;2256;48.740;9.106;2023-04-07T12:45:58;9.10;99.90
4487;DHT22;2256;48.740;9.106;2023-04-07T12:48:25;9.20;99.90
4487;DHT22;2256;48.740;9.106;2023-04-07T12:50:52;9.30;99.90
4487;DHT22;2256;48.740;9.106;2023-04-07T12:53:19;9.60;99.90
4487;DHT22;2256;48.740;9.106;2023-04-07T12:55:47;9.70;99.90
4487;DHT22;2256;48.740;9.106;2023-04-07T12:58:14;9.60;99.90
4487;DHT22;2256;48.740;9.106;2023-04-07T13:00:41;9.50;99.90
4487;DHT22;2256;48.740;9.106;2023-04-07T13:03:08;9.40;99.90
4487;DHT22;2256;48.740;9.106;2023-04-07T13:05:35;9.30;99.90
4487;DHT22;2256;48.740;9.106;2023-04-07T13:08:02;9.40;99.90
4487;DHT22;2256;48.740;9.106;2023-04-07T13:10:29;9.40;99.90
4487;DHT22;2256;48.740;9.106;2023-04-07T13:12:57;9.50;99.90
4487;DHT22;2256;48.740;9.106;2023-04-07T13:15:25;9.60;99.90
4487;DHT22;2256;48.740;9.106;2023-04-07T13:17:52;9.60;99.90
4487;DHT22;2256;48.740;9.106;2023-04-07T13:20:19;9.70;99.90
4487;DHT22;2256;48.740;9.106;2023-04-07T13:22:46;9.70;99.90
4487;DHT22;2256;48.740;9.106;2023-04-07T13:25:13;9.90;99.90
4487;DHT22;2256;48.740;9.106;2023-04-07T13:27:39;9.90;99.90
4487;DHT22;2256;48.740;9.106;2023-04-07T13:30:09;10.00;99.90
4487;DHT22;2256;48.740;9.106;2023-04-07T13:32:36;10.00;99.90
4487;DHT22;2256;48.740;9.106;2023-04-07T13:35:03;10.10;99.90
4487;DHT22;2256;48.740;9.106;2023-04-07T13:37:30;10.20;99.90
4487;DHT22;2256;48.740;9.106;2023-04-07T13:39:57;10.30;99.90
4487;DHT22;2256;48.740;9.106;2023-04-07T13:42:24;10.20;99.90
4487;DHT22;2256;48.740;9.106;2023-04-07T13:44:51;10.20;99.90
4487;DHT22;2256;48.740;9.106;2023-04-07T13:47:20;10.30;99.90
4487;DHT22;2256;48.740;9.106;2023-04-07T13:49:47;10.30;99.90
4487;DHT22;2256;48.740;9.106;2023-04-07T13:52:14;10.30;99.90
4487;DHT22;2256;48.740;9.106;2023-04-07T13:54:43;10.10;99.90
4487;DHT22;2256;48.740;9.106;2023-04-07T13:57:11;10.10;99.90
4487;DHT22;2256;48.740;9.106;2023-04-07T13:59:44;10.20;99.90
4487;DHT22;2256;48.740;9.106;2023-04-07T14:02:12;10.10;99.90
4487;DHT22;2256;48.740;9.106;2023-04-07T14:04:41;10.30;99.90
4487;DHT22;2256;48.740;9.106;2023-04-07T14:07:07;10.20;99.90
4487;DHT22;2256;48.740;9.106;2023-04-07T14:09:35;10.30;99.90
4487;DHT22;2256;48.740;9.106;2023-04-07T14:12:02;10.40;99.90
4487;DHT22;2256;48.740;9.106;2023-04-07T14:14:29;10.40;99.90
4487;DHT22;2256;48.740;9.106;2023-04-07T14:16:56;10.40;99.90
4487;DHT22;2256;48.740;9.106;2023-04-07T14:19:23;10.40;99.90
4487;DHT22;2256;48.740;9.106;2023-04-07T14:21:51;10.40;99.90
4487;DHT22;2256;48.740;9.106;2023-04-07T14:24:18;10.50;99.90
4487;DHT22;2256;48.740;9.106;2023-04-07T14:26:45;10.60;99.90
4487;DHT22;2256;48.740;9.106;2023-04-07T14:29:13;10.60;99.90
4487;DHT22;2256;48.740;9.106;2023-04-07T14:31:40;10.60;99.90
4487;DHT22;2256;48.740;9.106;2023-04-07T14:34:08;10.70;99.90
4487;DHT22;2256;48.740;9.106;2023-04-07T14:36:35;10.70;99.90
4487;DHT22;2256;48.740;9.106;2023-04-07T14:39:03;10.60;99.90
4487;DHT22;2256;48.740;9.106;2023-04-07T14:41:30;10.60;99.90
4487;DHT22;2256;48.740;9.106;2023-04-07T14:43:57;10.70;99.90
4487;DHT22;2256;48.740;9.106;2023-04-07T14:46:24;10.80;99.90
4487;DHT22;2256;48.740;9.106;2023-04-07T14:48:51;10.90;99.90
4487;DHT22;2256;48.740;9.106;2023-04-07T14:51:18;10.90;99.90
4487;DHT22;2256;48.740;9.106;2023-04-07T14:53:45;10.90;99.90
4487;DHT22;2256;48.740;9.106;2023-04-07T14:56:19;10.90;99.90
4487;DHT22;2256;48.740;9.106;2023-04-07T14:58:47;10.90;99.90
4487;DHT22;2256;48.740;9.106;2023-04-07T15:01:14;11.00;99.90
4487;DHT22;2256;48.740;9.106;2023-04-07T15:03:40;11.00;99.90
4487;DHT22;2256;48.740;9.106;2023-04-07T15:06:08;11.10;99.90
4487;DHT22;2256;48.740;9.106;2023-04-07T15:08:35;11.20;99.90
4487;DHT22;2256;48.740;9.106;2023-04-07T15:11:03;11.20;99.90
4487;DHT22;2256;48.740;9.106;2023-04-07T15:13:31;11.30;99.90
4487;DHT22;2256;48.740;9.106;2023-04-07T15:16:05;11.20;99.90
4487;DHT22;2256;48.740;9.106;2023-04-07T15:18:32;11.30;99.90
4487;DHT22;2256;48.740;9.106;2023-04-07T15:21:03;11.40;99.90
4487;DHT22;2256;48.740;9.106;2023-04-07T15:23:30;11.50;99.90
4487;DHT22;2256;48.740;9.106;2023-04-07T15:25:57;11.50;99.90
4487;DHT22;2256;48.740;9.106;2023-04-07T15:28:26;11.40;99.90
4487;DHT22;2256;48.740;9.106;2023-04-07T15:30:55;11.40;99.90
4487;DHT22;2256;48.740;9.106;2023-04-07T15:33:21;11.40;99.90
4487;DHT22;2256;48.740;9.106;2023-04-07T15:35:48;11.40;99.90
4487;DHT22;2256;48.740;9.106;2023-04-07T15:38:15;11.40;99.90
4487;DHT22;2256;48.740;9.106;2023-04-07T15:40:42;11.40;99.90
4487;DHT22;2256;48.740;9.106;2023-04-07T15:43:09;11.60;99.90
4487;DHT22;2256;48.740;9.106;2023-04-07T15:45:39;11.70;99.90
4487;DHT22;2256;48.740;9.106;2023-04-07T15:48:09;11.70;99.90
4487;DHT22;2256;48.740;9.106;2023-04-07T15:50:36;11.90;99.90
4487;DHT22;2256;48.740;9.106;2023-04-07T15:53:05;11.80;99.90
4487;DHT22;2256;48.740;9.106;2023-04-07T15:55:32;11.80;99.90
4487;DHT22;2256;48.740;9.106;2023-04-07T15:57:59;11.70;99.90
4487;DHT22;2256;48.740;9.106;2023-04-07T16:00:31;11.70;99.90
4487;DHT22;2256;48.740;9.106;2023-04-07T16:02:59;11.60;99.90
4487;DHT22;2256;48.740;9.106;2023-04-07T16:05:27;11.50;99.90
4487;DHT22;2256;48.740;9.106;2023-04-07T16:07:54;11.40;99.90
4487;DHT22;2256;48.740;9.106;2023-04-07T16:10:21;11.40;99.90
4487;DHT22;2256;48.740;9.106;2023-04-07T16:12:48;11.20;99.90
4487;DHT22;2256;48.740;9.106;2023-04-07T16:15:17;11.20;99.90
4487;DHT22;2256;48.740;9.106;2023-04-07T16:17:45;11.10;99.90
4487;DHT22;2256;48.740;9.106;2023-04-07T16:20:12;11.20;99.90
4487;DHT22;2256;48.740;9.106;2023-04-07T16:22:42;11.10;99.90